createdAt,value
2023-01-09T00:01:27.524Z,1.10
2023-01-09T00:03:55.807Z,0.90
2023-01-09T00:06:24.114Z,0.77
2023-01-09T00:08:52.507Z,1.00
2023-01-09T00:11:20.801Z,1.00
2023-01-09T00:13:48.999Z,0.80
2023-01-09T00:16:18.427Z,0.80
2023-01-09T00:18:46.772Z,0.60
2023-01-09T00:21:15.348Z,0.60
2023-01-09T00:23:43.468Z,0.80
2023-01-09T00:26:14.032Z,0.77
2023-01-09T00:28:42.587Z,0.83
2023-01-09T00:31:10.797Z,0.60
2023-01-09T00:33:42.718Z,0.60
2023-01-09T00:36:11.741Z,0.60
2023-01-09T00:38:40.867Z,0.50
2023-01-09T00:41:13.021Z,0.50
2023-01-09T00:43:45.591Z,0.40
2023-01-09T00:46:14.823Z,0.43
2023-01-09T00:48:46.431Z,0.40
2023-01-09T00:51:14.604Z,0.40
2023-01-09T00:53:44.578Z,0.57
2023-01-09T00:56:16.021Z,0.47
2023-01-09T00:58:44.481Z,0.60
2023-01-09T01:01:13.205Z,0.40
2023-01-09T01:03:41.404Z,0.40
2023-01-09T01:06:40.275Z,0.30
2023-01-09T01:09:08.744Z,0.30
2023-01-09T01:11:36.660Z,0.30
2023-01-09T01:14:04.983Z,0.20
2023-01-09T01:16:33.843Z,0.87
2023-01-09T01:19:01.951Z,0.10
2023-01-09T01:21:31.203Z,0.20
2023-01-09T01:23:59.880Z,0.20
2023-01-09T01:26:28.161Z,0.20
2023-01-09T01:28:56.180Z,0.20
2023-01-09T01:31:24.145Z,0.20
2023-01-09T01:33:52.059Z,0.20
2023-01-09T01:36:19.931Z,0.10
2023-01-09T01:38:49.635Z,0.20
2023-01-09T01:41:29.607Z,0.20
2023-01-09T01:44:00.138Z,0.20
2023-01-09T01:46:28.411Z,0.13
2023-01-09T01:49:02.402Z,0.20
2023-01-09T01:51:34.549Z,0.30
2023-01-09T01:54:07.608Z,0.20
2023-01-09T01:56:41.149Z,0.23
2023-01-09T01:59:14.658Z,0.30
2023-01-09T02:01:47.095Z,0.23
2023-01-09T02:04:16.015Z,0.30
2023-01-09T02:06:45.868Z,0.20
2023-01-09T02:09:19.365Z,0.30
2023-01-09T02:11:48.526Z,0.20
2023-01-09T02:14:17.461Z,0.20
2023-01-09T02:16:56.496Z,0.30
2023-01-09T02:20:01.672Z,0.10
2023-01-09T02:22:37.856Z,0.10
2023-01-09T02:25:43.805Z,0.20
2023-01-09T02:28:40.402Z,0.10
2023-01-09T02:31:14.614Z,0.20
2023-01-09T02:33:53.554Z,0.10
2023-01-09T02:36:29.920Z,0.10
2023-01-09T02:39:17.294Z,0.20
2023-01-09T02:41:53.609Z,0.10
2023-01-09T02:44:26.216Z,0.30
2023-01-09T02:47:07.653Z,0.20
2023-01-09T02:49:37.904Z,0.10
2023-01-09T02:52:17.409Z,0.20
2023-01-09T02:54:55.364Z,0.20
2023-01-09T02:57:41.792Z,0.20
2023-01-09T03:00:16.531Z,0.10
2023-01-09T03:02:51.668Z,0.10
2023-01-09T03:05:26.454Z,0.10
2023-01-09T03:08:00.672Z,0.27
2023-01-09T03:10:36.066Z,0.10
2023-01-09T03:13:05.024Z,0.17
2023-01-09T03:15:35.869Z,0.10
2023-01-09T03:18:07.505Z,0.20
2023-01-09T03:20:36.307Z,0.10
2023-01-09T03:23:07.277Z,0.17
2023-01-09T03:25:35.555Z,0.20
2023-01-09T03:28:05.611Z,0.10
2023-01-09T03:30:35.345Z,0.10
2023-01-09T03:33:04.708Z,0.10
2023-01-09T03:35:32.549Z,0.10
2023-01-09T03:38:00.522Z,0.10
2023-01-09T03:40:28.566Z,0.10
2023-01-09T03:42:56.451Z,0.20
2023-01-09T03:45:24.334Z,0.10
2023-01-09T03:47:53.128Z,0.10
2023-01-09T03:50:22.434Z,0.20
2023-01-09T03:52:50.494Z,0.30
2023-01-09T03:55:18.501Z,0.20
2023-01-09T03:57:46.359Z,0.20
2023-01-09T04:00:15.602Z,0.17
2023-01-09T04:02:43.730Z,0.20
2023-01-09T04:05:11.847Z,0.17
2023-01-09T04:07:41.536Z,0.20
2023-01-09T04:10:10.981Z,0.20
2023-01-09T04:12:38.976Z,0.10
2023-01-09T04:15:08.115Z,0.10
2023-01-09T04:17:36.192Z,0.20
2023-01-09T04:20:04.871Z,0.30
2023-01-09T04:22:32.813Z,0.20
2023-01-09T04:25:02.393Z,0.10
2023-01-09T04:27:30.310Z,0.10
2023-01-09T04:29:58.686Z,0.20
2023-01-09T04:32:27.687Z,0.20
2023-01-09T04:34:55.676Z,0.20
2023-01-09T04:37:24.597Z,0.10
2023-01-09T04:39:54.779Z,0.30
2023-01-09T04:42:24.825Z,0.33
2023-01-09T04:44:53.989Z,0.20
2023-01-09T04:47:23.636Z,0.30
2023-01-09T04:49:52.079Z,0.20
2023-01-09T04:52:20.310Z,0.20
2023-01-09T04:54:48.863Z,0.20
2023-01-09T04:57:17.113Z,0.20
2023-01-09T04:59:46.640Z,0.20
2023-01-09T05:02:15.083Z,0.20
2023-01-09T05:04:43.074Z,0.30
2023-01-09T05:07:11.018Z,0.20
2023-01-09T05:09:39.058Z,0.30
2023-01-09T05:12:07.967Z,0.20
2023-01-09T05:14:35.928Z,0.20
2023-01-09T05:17:05.650Z,0.10
2023-01-09T05:19:34.495Z,0.20
2023-01-09T05:22:02.760Z,0.33
2023-01-09T05:24:30.632Z,0.30
2023-01-09T05:26:58.843Z,0.50
2023-01-09T05:29:26.807Z,0.43
2023-01-09T05:31:54.928Z,0.70
2023-01-09T05:34:25.027Z,0.60
2023-01-09T05:36:53.283Z,0.57
2023-01-09T05:39:21.233Z,0.70
2023-01-09T05:41:49.533Z,0.70
2023-01-09T05:44:17.662Z,0.70
2023-01-09T05:46:45.720Z,0.70
2023-01-09T05:49:13.713Z,0.90
2023-01-09T05:51:42.886Z,1.00
2023-01-09T05:54:11.053Z,0.60
2023-01-09T05:56:38.940Z,0.50
2023-01-09T05:59:07.085Z,0.67
2023-01-09T06:01:35.143Z,0.70
2023-01-09T06:04:03.074Z,0.60
2023-01-09T06:06:31.233Z,0.70
2023-01-09T06:09:00.485Z,0.60
2023-01-09T06:11:28.566Z,0.97
2023-01-09T06:13:56.441Z,0.40
2023-01-09T06:16:24.557Z,1.00
2023-01-09T06:18:52.679Z,0.53
2023-01-09T06:21:20.577Z,0.30
2023-01-09T06:23:48.584Z,0.40
2023-01-09T06:26:18.220Z,0.50
2023-01-09T06:28:46.096Z,0.40
2023-01-09T06:31:14.296Z,0.50
2023-01-09T06:33:42.349Z,0.30
2023-01-09T06:36:10.596Z,0.60
2023-01-09T06:38:39.021Z,0.40
2023-01-09T06:41:07.246Z,0.40
2023-01-09T06:43:37.647Z,0.40
2023-01-09T06:46:06.585Z,0.40
2023-01-09T06:48:35.161Z,0.60
2023-01-09T06:51:03.581Z,1.80
2023-01-09T06:53:31.479Z,0.70
2023-01-09T06:55:59.439Z,0.53
2023-01-09T06:58:27.469Z,0.60
2023-01-09T07:00:56.748Z,0.50
2023-01-09T07:03:25.160Z,0.60
2023-01-09T07:05:53.276Z,0.80
2023-01-09T07:08:21.685Z,0.60
2023-01-09T07:10:49.528Z,0.70
2023-01-09T07:13:17.703Z,0.60
2023-01-09T07:15:46.028Z,0.50
2023-01-09T07:18:15.429Z,0.60
2023-01-09T07:20:43.496Z,0.43
2023-01-09T07:23:13.259Z,0.60
2023-01-09T07:25:42.450Z,0.70
2023-01-09T07:28:10.378Z,0.70
2023-01-09T07:30:38.477Z,0.67
2023-01-09T07:33:06.618Z,0.60
2023-01-09T07:35:36.023Z,0.70
2023-01-09T07:38:04.207Z,0.93
2023-01-09T07:40:32.124Z,0.60
2023-01-09T07:43:00.250Z,0.60
2023-01-09T07:45:28.322Z,0.83
2023-01-09T07:47:56.362Z,0.60
2023-01-09T07:50:24.289Z,0.47
2023-01-09T07:52:54.289Z,0.60
2023-01-09T07:55:22.148Z,0.60
2023-01-09T07:57:51.144Z,0.50
2023-01-09T08:00:21.008Z,0.60
2023-01-09T08:02:53.059Z,0.50
2023-01-09T08:05:21.293Z,0.70
2023-01-09T08:07:50.657Z,0.60
2023-01-09T08:10:20.799Z,0.60
2023-01-09T08:12:50.021Z,0.60
2023-01-09T08:15:18.296Z,0.60
2023-01-09T08:17:47.473Z,0.60
2023-01-09T08:20:17.238Z,0.70
2023-01-09T08:22:49.796Z,0.60
2023-01-09T08:25:19.581Z,0.57
2023-01-09T08:27:47.787Z,0.40
2023-01-09T08:30:16.758Z,0.60
2023-01-09T08:32:45.118Z,0.40
2023-01-09T08:35:13.161Z,0.50
2023-01-09T08:37:44.510Z,0.70
2023-01-09T08:40:13.744Z,0.67
2023-01-09T08:43:00.985Z,0.40
2023-01-09T08:45:46.870Z,0.40
2023-01-09T08:48:15.053Z,0.50
2023-01-09T08:50:43.403Z,0.57
2023-01-09T08:53:11.792Z,0.50
2023-01-09T08:55:39.694Z,0.57
2023-01-09T08:58:09.009Z,0.40
2023-01-09T09:00:37.515Z,0.50
2023-01-09T09:03:05.549Z,0.53
2023-01-09T09:05:33.878Z,0.50
2023-01-09T09:08:02.712Z,0.70
2023-01-09T09:10:31.473Z,0.30
2023-01-09T09:13:00.537Z,0.33
2023-01-09T09:15:29.942Z,0.43
2023-01-09T09:18:00.596Z,0.30
2023-01-09T09:20:31.242Z,0.50
2023-01-09T09:22:59.560Z,0.40
2023-01-09T09:25:28.178Z,0.50
2023-01-09T09:27:56.868Z,0.50
2023-01-09T09:30:25.722Z,0.50
2023-01-09T09:32:55.057Z,0.40
2023-01-09T09:35:23.719Z,0.50
2023-01-09T09:37:56.225Z,0.50
2023-01-09T09:40:37.011Z,0.43
2023-01-09T09:43:48.563Z,0.40
2023-01-09T09:46:28.103Z,0.40
2023-01-09T09:49:03.820Z,0.70
2023-01-09T09:51:51.228Z,0.60
2023-01-09T09:54:22.742Z,0.50
2023-01-09T09:56:54.219Z,0.40
2023-01-09T09:59:26.891Z,0.40
2023-01-09T10:01:58.872Z,0.50
2023-01-09T10:04:32.070Z,0.60
2023-01-09T10:07:06.006Z,0.40
2023-01-09T10:09:45.780Z,0.30
2023-01-09T10:12:27.427Z,0.53
2023-01-09T10:14:56.938Z,0.80
2023-01-09T10:17:39.342Z,0.40
2023-01-09T10:20:45.412Z,0.57
2023-01-09T10:23:34.619Z,0.57
2023-01-09T10:26:07.643Z,0.50
2023-01-09T10:28:54.503Z,0.50
2023-01-09T10:31:32.784Z,0.40
2023-01-09T10:34:12.175Z,0.50
2023-01-09T10:37:00.829Z,0.60
2023-01-09T10:39:36.070Z,0.40
2023-01-09T10:42:11.830Z,0.40
2023-01-09T10:44:48.079Z,0.40
2023-01-09T10:47:19.418Z,0.30
2023-01-09T10:49:50.352Z,0.40
2023-01-09T10:52:20.734Z,0.40
2023-01-09T10:54:57.284Z,0.40
2023-01-09T10:57:36.485Z,0.30
2023-01-09T11:00:05.780Z,0.47
2023-01-09T11:02:36.313Z,0.57
2023-01-09T11:05:04.270Z,0.40
2023-01-09T11:07:38.548Z,0.40
2023-01-09T11:10:09.635Z,0.47
2023-01-09T11:12:38.722Z,0.40
2023-01-09T11:15:29.041Z,0.43
2023-01-09T11:18:18.692Z,0.47
2023-01-09T11:20:46.921Z,1.47
2023-01-09T11:23:31.703Z,0.73
2023-01-09T11:26:01.818Z,0.50
2023-01-09T11:28:30.617Z,0.63
2023-01-09T11:31:02.954Z,0.60
2023-01-09T11:33:35.567Z,0.40
2023-01-09T11:36:07.978Z,0.40
2023-01-09T11:38:50.864Z,0.30
2023-01-09T11:41:21.921Z,0.50
2023-01-09T11:43:52.237Z,0.30
2023-01-09T11:46:35.301Z,0.70
2023-01-09T11:49:05.021Z,0.40
2023-01-09T11:51:35.136Z,0.30
2023-01-09T11:54:18.068Z,0.20
2023-01-09T11:56:47.368Z,0.30
2023-01-09T11:59:17.784Z,0.27
2023-01-09T12:02:15.283Z,0.20
2023-01-09T12:04:50.991Z,0.30
2023-01-09T12:07:46.904Z,0.30
2023-01-09T12:10:38.721Z,0.40
2023-01-09T12:13:19.504Z,0.40
2023-01-09T12:15:57.301Z,0.50
2023-01-09T12:18:48.196Z,0.40
2023-01-09T12:21:29.434Z,0.30
2023-01-09T12:24:32.568Z,0.60
2023-01-09T12:27:17.276Z,0.40
2023-01-09T12:30:16.440Z,0.37
2023-01-09T12:32:58.715Z,0.57
2023-01-09T12:35:36.524Z,0.20
2023-01-09T12:38:25.817Z,0.40
2023-01-09T12:41:13.336Z,0.27
2023-01-09T12:43:53.286Z,0.30
2023-01-09T12:46:22.787Z,0.27
2023-01-09T12:49:10.127Z,0.30
2023-01-09T12:51:42.926Z,0.40
2023-01-09T12:54:18.780Z,0.30
2023-01-09T12:56:50.705Z,0.33
2023-01-09T12:59:31.246Z,0.30
2023-01-09T13:02:07.785Z,0.30
2023-01-09T13:04:41.023Z,0.30
2023-01-09T13:07:17.076Z,0.30
2023-01-09T13:09:51.286Z,0.30
2023-01-09T13:12:23.239Z,0.30
2023-01-09T13:14:57.391Z,0.30
2023-01-09T13:17:31.288Z,0.40
2023-01-09T13:19:59.236Z,0.30
2023-01-09T13:22:29.723Z,0.27
2023-01-09T13:25:20.998Z,0.40
2023-01-09T13:27:57.476Z,0.40
2023-01-09T13:30:58.745Z,0.50
2023-01-09T13:33:30.257Z,0.47
2023-01-09T13:36:02.721Z,0.60
2023-01-09T13:38:32.459Z,0.60
2023-01-09T13:41:23.228Z,0.50
2023-01-09T13:43:57.137Z,0.60
2023-01-09T13:46:36.743Z,1.23
2023-01-09T13:49:05.430Z,1.60
2023-01-09T13:51:59.283Z,1.33
2023-01-09T13:55:19.314Z,0.90
2023-01-09T13:58:27.637Z,0.60
2023-01-09T14:01:04.778Z,0.90
2023-01-09T14:03:36.806Z,0.70
2023-01-09T14:06:18.843Z,1.43
2023-01-09T14:08:49.556Z,0.70
2023-01-09T14:11:24.105Z,1.20
2023-01-09T14:14:23.754Z,0.60
2023-01-09T14:16:52.609Z,0.80
2023-01-09T14:19:31.662Z,0.50
2023-01-09T14:22:00.886Z,0.70
2023-01-09T14:24:32.276Z,0.67
2023-01-09T14:27:02.048Z,0.70
2023-01-09T14:29:44.616Z,0.60
2023-01-09T14:32:39.091Z,0.50
2023-01-09T14:35:17.251Z,0.57
2023-01-09T14:37:51.055Z,0.33
2023-01-09T14:40:24.112Z,0.30
2023-01-09T14:42:55.348Z,0.33
2023-01-09T14:45:27.099Z,0.47
2023-01-09T14:47:59.343Z,0.40
2023-01-09T14:50:33.041Z,0.40
2023-01-09T14:53:05.952Z,0.30
2023-01-09T14:55:50.588Z,0.20
2023-01-09T14:58:24.533Z,0.20
2023-01-09T15:00:59.215Z,0.30
2023-01-09T15:03:30.540Z,0.30
2023-01-09T15:05:58.637Z,0.40
2023-01-09T15:08:28.900Z,0.40
2023-01-09T15:10:59.473Z,0.30
2023-01-09T15:13:37.128Z,0.20
2023-01-09T15:16:08.373Z,0.30
2023-01-09T15:18:42.291Z,0.30
2023-01-09T15:21:18.525Z,0.30
2023-01-09T15:23:46.587Z,0.30
2023-01-09T15:26:24.471Z,0.30
2023-01-09T15:28:53.490Z,0.30
2023-01-09T15:31:25.351Z,0.37
2023-01-09T15:33:54.191Z,0.30
2023-01-09T15:36:24.926Z,0.30
2023-01-09T15:38:54.922Z,0.50
2023-01-09T15:41:45.112Z,0.40
2023-01-09T15:44:18.471Z,0.50
2023-01-09T15:46:50.345Z,0.40
2023-01-09T15:49:18.968Z,0.63
2023-01-09T15:51:49.322Z,0.60
2023-01-09T15:54:19.568Z,0.63
2023-01-09T15:56:47.507Z,0.77
2023-01-09T15:59:29.823Z,0.67
2023-01-09T16:02:15.558Z,0.80
2023-01-09T16:04:43.940Z,0.70
2023-01-09T16:07:16.315Z,1.10
2023-01-09T16:09:47.598Z,0.80
2023-01-09T16:12:20.553Z,1.10
2023-01-09T16:14:53.520Z,0.90
2023-01-09T16:17:26.526Z,0.80
2023-01-09T16:19:57.851Z,1.00
2023-01-09T16:22:28.287Z,0.73
2023-01-09T16:24:58.748Z,0.80
2023-01-09T16:27:28.706Z,1.00
2023-01-09T16:29:58.894Z,0.70
2023-01-09T16:32:30.663Z,1.00
2023-01-09T16:35:00.746Z,0.80
2023-01-09T16:37:29.527Z,0.73
2023-01-09T16:40:25.166Z,0.97
2023-01-09T16:43:01.184Z,1.10
2023-01-09T16:45:32.256Z,1.20
2023-01-09T16:48:02.093Z,1.07
2023-01-09T16:50:30.497Z,1.40
2023-01-09T16:53:00.389Z,0.70
2023-01-09T16:55:28.456Z,0.70
2023-01-09T16:57:56.672Z,0.80
2023-01-09T17:00:24.778Z,1.00
2023-01-09T17:02:53.545Z,0.87
2023-01-09T17:05:23.270Z,0.70
2023-01-09T17:07:51.127Z,0.80
2023-01-09T17:10:22.345Z,0.67
2023-01-09T17:12:50.452Z,1.30
2023-01-09T17:15:18.448Z,0.90
2023-01-09T17:17:46.330Z,1.03
2023-01-09T17:20:17.477Z,0.80
2023-01-09T17:22:46.731Z,0.80
2023-01-09T17:25:34.486Z,0.80
2023-01-09T17:28:21.195Z,0.80
2023-01-09T17:30:49.472Z,0.80
2023-01-09T17:33:20.606Z,0.80
2023-01-09T17:35:48.764Z,0.80
2023-01-09T17:38:18.225Z,0.70
2023-01-09T17:40:46.604Z,0.60
2023-01-09T17:43:14.819Z,0.70
2023-01-09T17:45:43.530Z,0.90
2023-01-09T17:48:19.569Z,0.77
2023-01-09T17:50:49.153Z,0.70
2023-01-09T17:53:20.524Z,0.60
2023-01-09T17:55:48.646Z,0.70
2023-01-09T17:58:26.728Z,0.70
2023-01-09T18:00:54.841Z,0.77
2023-01-09T18:03:25.796Z,0.60
2023-01-09T18:05:54.541Z,1.00
2023-01-09T18:08:23.974Z,0.80
2023-01-09T18:10:52.027Z,0.90
2023-01-09T18:13:19.951Z,0.70
2023-01-09T18:15:48.331Z,0.70
2023-01-09T18:18:17.021Z,0.60
2023-01-09T18:20:46.310Z,0.60
2023-01-09T18:23:14.719Z,0.70
2023-01-09T18:25:44.807Z,0.80
2023-01-09T18:28:15.249Z,1.17
2023-01-09T18:30:45.540Z,0.93
2023-01-09T18:33:14.221Z,1.43
2023-01-09T18:35:43.476Z,1.07
2023-01-09T18:38:11.660Z,1.73
2023-01-09T18:40:39.931Z,1.20
2023-01-09T18:43:11.321Z,2.97
2023-01-09T18:45:39.928Z,1.83
2023-01-09T18:48:09.599Z,3.10
2023-01-09T18:50:37.508Z,1.90
2023-01-09T18:53:06.213Z,1.13
2023-01-09T18:55:34.218Z,0.77
2023-01-09T18:58:02.501Z,1.90
2023-01-09T19:00:32.277Z,1.10
2023-01-09T19:03:00.202Z,1.40
2023-01-09T19:05:28.447Z,1.13
2023-01-09T19:07:56.365Z,2.27
2023-01-09T19:10:24.485Z,2.80
2023-01-09T19:12:52.375Z,1.80
2023-01-09T19:15:20.442Z,1.57
2023-01-09T19:17:50.322Z,1.50
2023-01-09T19:20:19.151Z,1.00
2023-01-09T19:22:47.038Z,1.10
2023-01-09T19:25:14.969Z,0.87
2023-01-09T19:27:43.244Z,1.03
2023-01-09T19:30:13.254Z,0.60
2023-01-09T19:32:41.320Z,0.80
2023-01-09T19:35:11.133Z,1.00
2023-01-09T19:37:39.060Z,0.90
2023-01-09T19:40:07.961Z,0.73
2023-01-09T19:42:36.029Z,0.77
2023-01-09T19:45:04.708Z,0.80
2023-01-09T19:47:35.567Z,0.90
2023-01-09T19:50:05.171Z,0.77
2023-01-09T19:52:36.230Z,1.20
2023-01-09T19:55:04.821Z,1.07
2023-01-09T19:57:32.673Z,0.70
2023-01-09T20:00:00.569Z,0.83
2023-01-09T20:02:28.646Z,0.70
2023-01-09T20:04:56.828Z,0.97
2023-01-09T20:07:24.778Z,0.90
2023-01-09T20:09:54.250Z,0.93
2023-01-09T20:12:22.542Z,0.80
2023-01-09T20:14:50.878Z,0.90
2023-01-09T20:17:19.762Z,0.80
2023-01-09T20:19:47.715Z,0.70
2023-01-09T20:22:15.874Z,0.77
2023-01-09T20:24:43.917Z,0.87
2023-01-09T20:27:13.423Z,0.93
2023-01-09T20:29:41.346Z,1.20
2023-01-09T20:32:10.335Z,0.93
2023-01-09T20:34:38.326Z,0.80
2023-01-09T20:37:06.650Z,1.10
2023-01-09T20:39:34.630Z,0.90
2023-01-09T20:42:02.846Z,1.10
2023-01-09T20:44:32.201Z,0.83
2023-01-09T20:47:00.134Z,1.10
2023-01-09T20:49:29.156Z,0.87
2023-01-09T20:51:57.052Z,1.10
2023-01-09T20:54:25.517Z,1.00
2023-01-09T20:56:53.723Z,1.10
2023-01-09T20:59:22.235Z,0.87
2023-01-09T21:01:52.283Z,1.00
2023-01-09T21:04:20.564Z,0.87
2023-01-09T21:06:50.236Z,1.00
2023-01-09T21:09:18.695Z,1.03
2023-01-09T21:11:46.920Z,1.30
2023-01-09T21:14:14.841Z,0.97
2023-01-09T21:16:45.501Z,1.10
2023-01-09T21:19:21.574Z,1.30
2023-01-09T21:21:52.215Z,0.87
2023-01-09T21:24:20.955Z,1.10
2023-01-09T21:26:49.123Z,1.10
2023-01-09T21:29:17.327Z,2.23
2023-01-09T21:31:45.819Z,3.33
2023-01-09T21:34:14.795Z,2.30
2023-01-09T21:36:45.198Z,4.07
2023-01-09T21:39:13.350Z,2.80
2023-01-09T21:41:58.922Z,3.00
2023-01-09T21:44:44.421Z,3.17
2023-01-09T21:47:12.841Z,2.40
2023-01-09T21:49:42.234Z,1.70
2023-01-09T21:52:12.809Z,1.90
2023-01-09T21:54:41.214Z,1.60
2023-01-09T21:57:09.202Z,1.53
2023-01-09T21:59:37.583Z,1.20
2023-01-09T22:02:05.641Z,1.33
2023-01-09T22:04:33.574Z,1.40
2023-01-09T22:07:01.695Z,2.50
2023-01-09T22:09:31.320Z,2.73
2023-01-09T22:11:59.698Z,2.90
2023-01-09T22:14:27.689Z,3.30
2023-01-09T22:16:55.660Z,2.93
2023-01-09T22:19:23.930Z,2.60
2023-01-09T22:21:51.897Z,2.83
2023-01-09T22:24:21.828Z,2.70
2023-01-09T22:26:51.159Z,9.00
2023-01-09T22:29:19.185Z,4.87
2023-01-09T22:31:47.835Z,6.50
2023-01-09T22:34:17.923Z,4.53
2023-01-09T22:36:46.432Z,3.70
2023-01-09T22:39:16.437Z,3.20
2023-01-09T22:41:44.697Z,2.97
2023-01-09T22:44:14.496Z,2.50
2023-01-09T22:46:42.444Z,3.03
2023-01-09T22:49:12.187Z,3.50
2023-01-09T22:51:40.153Z,3.40
2023-01-09T22:54:08.226Z,3.00
2023-01-09T22:56:36.400Z,2.73
2023-01-09T22:59:04.322Z,10.77
2023-01-09T23:01:34.089Z,5.40
2023-01-09T23:04:03.586Z,6.33
2023-01-09T23:06:32.356Z,3.60
2023-01-09T23:09:00.486Z,4.27
2023-01-09T23:11:48.030Z,4.07
2023-01-09T23:14:16.336Z,3.10
2023-01-09T23:16:45.653Z,2.57
2023-01-09T23:19:15.661Z,2.67
2023-01-09T23:21:44.451Z,2.90
2023-01-09T23:24:13.951Z,5.13
2023-01-09T23:26:43.506Z,3.63
2023-01-09T23:29:12.698Z,2.80
2023-01-09T23:31:40.850Z,2.40
2023-01-09T23:34:13.801Z,2.50
2023-01-09T23:36:41.962Z,2.63
2023-01-09T23:39:10.414Z,2.30
2023-01-09T23:42:01.643Z,3.93
2023-01-09T23:44:30.346Z,11.70
2023-01-09T23:46:58.597Z,7.33
2023-01-09T23:49:28.055Z,7.07
2023-01-09T23:51:56.370Z,5.37
2023-01-09T23:54:24.541Z,3.80
2023-01-09T23:56:53.266Z,2.57
2023-01-09T23:59:21.314Z,2.60
